createdAt,value
2018-07-03T00:00:17.370Z,17.80
2018-07-03T00:02:45.608Z,17.90
2018-07-03T00:05:13.873Z,18.00
2018-07-03T00:07:42.150Z,17.90
2018-07-03T00:10:11.250Z,17.80
2018-07-03T00:12:39.592Z,17.80
2018-07-03T00:15:08.154Z,17.70
2018-07-03T00:17:36.389Z,17.70
2018-07-03T00:20:05.630Z,17.70
2018-07-03T00:22:33.942Z,17.80
2018-07-03T00:25:02.174Z,17.70
2018-07-03T00:27:30.448Z,17.70
2018-07-03T00:29:58.704Z,17.70
2018-07-03T00:32:26.941Z,17.70
2018-07-03T00:34:55.159Z,17.60
2018-07-03T00:37:23.402Z,17.60
2018-07-03T00:39:51.681Z,17.50
2018-07-03T00:42:19.941Z,17.50
2018-07-03T00:44:48.183Z,17.30
2018-07-03T00:47:16.454Z,17.20
2018-07-03T00:49:44.729Z,17.20
2018-07-03T00:52:13.004Z,17.20
2018-07-03T00:54:41.278Z,17.20
2018-07-03T00:57:09.552Z,17.10
2018-07-03T00:59:47.803Z,17.10
2018-07-03T01:02:16.639Z,17.10
2018-07-03T01:04:44.878Z,17.00
2018-07-03T01:07:13.134Z,17.00
2018-07-03T01:09:41.438Z,16.90
2018-07-03T01:12:09.722Z,16.80
2018-07-03T01:14:38.091Z,16.70
2018-07-03T01:17:06.379Z,16.70
2018-07-03T01:19:34.638Z,16.70
2018-07-03T01:22:02.932Z,16.70
2018-07-03T01:24:31.211Z,16.70
2018-07-03T01:26:59.478Z,16.60
2018-07-03T01:29:27.746Z,16.60
2018-07-03T01:31:56.043Z,16.60
2018-07-03T01:34:24.298Z,16.70
2018-07-03T01:36:52.974Z,16.70
2018-07-03T01:39:21.166Z,16.70
2018-07-03T01:41:49.408Z,16.70
2018-07-03T01:44:17.629Z,16.70
2018-07-03T01:46:45.917Z,16.80
2018-07-03T01:49:14.149Z,16.80
2018-07-03T01:54:10.374Z,16.90
2018-07-03T01:56:38.619Z,16.90
2018-07-03T01:59:06.929Z,16.90
2018-07-03T02:01:36.126Z,16.90
2018-07-03T02:04:04.381Z,17.00
2018-07-03T02:06:32.695Z,16.90
2018-07-03T02:09:01.003Z,16.80
2018-07-03T02:11:29.263Z,16.80
2018-07-03T02:13:57.686Z,16.70
2018-07-03T02:16:25.945Z,16.70
2018-07-03T02:18:54.285Z,16.60
2018-07-03T02:21:22.558Z,16.50
2018-07-03T02:23:50.837Z,16.30
2018-07-03T02:26:19.109Z,16.30
2018-07-03T02:28:47.402Z,16.30
2018-07-03T02:31:15.686Z,16.30
2018-07-03T02:33:43.940Z,16.20
2018-07-03T02:36:12.241Z,16.20
2018-07-03T02:38:40.491Z,16.10
2018-07-03T02:41:08.779Z,16.20
2018-07-03T02:43:37.271Z,16.20
2018-07-03T02:46:05.916Z,16.10
2018-07-03T02:48:34.308Z,16.10
2018-07-03T02:51:02.619Z,16.10
2018-07-03T02:53:30.949Z,16.10
2018-07-03T02:55:59.239Z,16.10
2018-07-03T02:58:27.534Z,16.10
2018-07-03T03:00:55.832Z,16.20
2018-07-03T03:03:24.103Z,16.30
2018-07-03T03:05:52.570Z,16.30
2018-07-03T03:08:20.838Z,16.40
2018-07-03T03:10:49.218Z,16.40
2018-07-03T03:13:17.543Z,16.40
2018-07-03T03:15:45.822Z,16.40
2018-07-03T03:18:14.144Z,16.40
2018-07-03T03:20:42.362Z,16.30
2018-07-03T03:23:11.059Z,16.30
2018-07-03T03:25:39.275Z,16.20
2018-07-03T03:28:07.496Z,16.20
2018-07-03T03:30:35.758Z,16.10
2018-07-03T03:33:04.042Z,16.10
2018-07-03T03:35:32.531Z,16.10
2018-07-03T03:38:00.737Z,16.20
2018-07-03T03:40:28.931Z,16.20
2018-07-03T03:42:57.146Z,16.30
2018-07-03T03:45:25.343Z,16.50
2018-07-03T03:47:53.607Z,16.50
2018-07-03T03:50:21.854Z,16.50
2018-07-03T03:55:18.112Z,16.60
2018-07-03T03:57:46.353Z,16.70
2018-07-03T04:00:14.552Z,16.80
2018-07-03T04:02:42.923Z,17.00
2018-07-03T04:05:11.157Z,16.90
2018-07-03T04:07:39.459Z,17.10
2018-07-03T04:10:07.762Z,17.30
2018-07-03T04:12:36.047Z,17.30
2018-07-03T04:15:04.384Z,17.40
2018-07-03T04:17:32.780Z,17.50
2018-07-03T04:20:01.091Z,17.60
2018-07-03T04:22:29.367Z,17.70
2018-07-03T04:24:57.606Z,17.80
2018-07-03T04:27:25.882Z,17.80
2018-07-03T04:29:54.158Z,17.80
2018-07-03T04:32:22.500Z,17.80
2018-07-03T04:34:50.777Z,17.80
2018-07-03T04:37:19.034Z,17.80
2018-07-03T04:42:15.540Z,17.70
2018-07-03T04:44:43.882Z,17.60
2018-07-03T04:47:12.129Z,17.30
2018-07-03T04:49:40.353Z,17.30
2018-07-03T04:52:08.587Z,17.30
2018-07-03T04:54:36.913Z,17.30
2018-07-03T04:57:05.343Z,17.30
2018-07-03T04:59:34.539Z,17.50
2018-07-03T05:02:02.802Z,17.70
2018-07-03T05:04:31.145Z,17.70
2018-07-03T05:06:59.370Z,17.60
2018-07-03T05:09:27.646Z,17.80
2018-07-03T05:11:55.905Z,18.00
2018-07-03T05:14:24.314Z,18.10
2018-07-03T05:16:57.984Z,18.30
2018-07-03T05:19:28.077Z,18.40
2018-07-03T05:21:56.289Z,18.50
2018-07-03T05:24:24.861Z,18.80
2018-07-03T05:26:53.435Z,19.10
2018-07-03T05:29:21.742Z,19.10
2018-07-03T05:31:50.344Z,19.00
2018-07-03T05:34:18.832Z,19.30
2018-07-03T05:36:47.177Z,19.50
2018-07-03T05:39:15.502Z,19.90
2018-07-03T05:41:43.802Z,20.20
2018-07-03T05:44:12.114Z,20.30
2018-07-03T05:46:40.406Z,20.40
2018-07-03T05:49:08.710Z,20.60
2018-07-03T05:51:36.919Z,20.30
2018-07-03T05:54:05.176Z,20.30
2018-07-03T05:56:33.489Z,20.50
2018-07-03T05:59:01.759Z,20.80
2018-07-03T06:01:30.027Z,21.30
2018-07-03T06:03:58.295Z,21.60
2018-07-03T06:06:26.533Z,21.90
2018-07-03T06:08:54.763Z,22.00
2018-07-03T06:13:51.117Z,22.30
2018-07-03T06:16:19.595Z,22.90
2018-07-03T06:18:47.859Z,23.30
2018-07-03T06:21:16.142Z,23.80
2018-07-03T06:23:44.409Z,24.20
2018-07-03T06:26:12.733Z,24.40
2018-07-03T06:28:41.054Z,24.30
2018-07-03T06:31:09.223Z,24.60
2018-07-03T06:33:37.466Z,25.10
2018-07-03T06:36:05.715Z,25.40
2018-07-03T06:38:33.951Z,25.60
2018-07-03T06:41:02.196Z,25.50
2018-07-03T06:43:30.405Z,25.80
2018-07-03T06:45:58.674Z,25.30
2018-07-03T06:48:26.873Z,25.60
2018-07-03T06:50:55.140Z,26.30
2018-07-03T06:53:23.416Z,26.60
2018-07-03T06:55:51.687Z,26.50
2018-07-03T06:58:19.967Z,26.30
2018-07-03T07:00:48.232Z,26.50
2018-07-03T07:03:16.447Z,26.60
2018-07-03T07:05:44.706Z,27.10
2018-07-03T07:08:13.154Z,27.40
2018-07-03T07:10:41.937Z,27.10
2018-07-03T07:13:10.214Z,27.10
2018-07-03T07:15:38.574Z,27.30
2018-07-03T07:18:06.826Z,27.40
2018-07-03T07:20:35.107Z,27.50
2018-07-03T07:23:03.520Z,27.30
2018-07-03T07:25:31.762Z,27.10
2018-07-03T07:28:00.058Z,27.60
2018-07-03T07:30:28.342Z,27.80
2018-07-03T07:32:56.637Z,28.00
2018-07-03T07:35:24.899Z,27.70
2018-07-03T07:37:53.175Z,27.90
2018-07-03T07:40:21.445Z,27.70
2018-07-03T07:42:49.748Z,27.80
2018-07-03T07:45:18.019Z,27.80
2018-07-03T07:47:46.286Z,27.90
2018-07-03T07:50:14.618Z,28.40
2018-07-03T07:52:42.915Z,29.00
2018-07-03T07:55:11.241Z,29.10
2018-07-03T07:57:39.495Z,28.90
2018-07-03T08:00:07.895Z,28.80
2018-07-03T08:02:36.151Z,29.00
2018-07-03T08:05:04.649Z,28.60
2018-07-03T08:07:32.923Z,28.30
2018-07-03T08:10:01.222Z,28.30
2018-07-03T08:12:29.495Z,28.70
2018-07-03T08:17:25.888Z,29.90
2018-07-03T08:19:54.164Z,30.30
2018-07-03T08:22:22.461Z,29.90
2018-07-03T08:24:50.849Z,29.00
2018-07-03T08:27:19.121Z,29.40
2018-07-03T08:29:47.718Z,29.60
2018-07-03T08:32:16.119Z,28.90
2018-07-03T08:34:44.438Z,28.60
2018-07-03T08:37:12.790Z,28.60
2018-07-03T08:39:41.087Z,28.40
2018-07-03T08:42:09.437Z,28.00
2018-07-03T08:44:37.763Z,28.10
2018-07-03T08:47:06.058Z,28.10
2018-07-03T08:49:34.313Z,28.30
2018-07-03T08:52:02.709Z,28.50
2018-07-03T08:54:30.967Z,28.90
2018-07-03T08:56:59.248Z,28.70
2018-07-03T08:59:27.642Z,28.40
2018-07-03T09:01:55.896Z,28.30
2018-07-03T09:04:24.181Z,28.00
2018-07-03T09:06:52.455Z,27.30
2018-07-03T09:09:20.730Z,26.50
2018-07-03T09:11:48.996Z,26.60
2018-07-03T09:14:17.286Z,27.00
2018-07-03T09:16:45.530Z,26.90
2018-07-03T09:19:13.767Z,27.30
2018-07-03T09:21:42.010Z,27.50
2018-07-03T09:24:10.318Z,27.70
2018-07-03T09:26:38.609Z,27.80
2018-07-03T09:29:06.835Z,27.50
2018-07-03T09:31:35.083Z,27.30
2018-07-03T09:34:03.336Z,26.80
2018-07-03T09:36:31.543Z,27.20
2018-07-03T09:38:59.767Z,27.50
2018-07-03T09:41:27.998Z,27.90
2018-07-03T09:43:56.274Z,28.70
2018-07-03T09:46:24.904Z,28.20
2018-07-03T09:48:53.216Z,28.60
2018-07-03T09:51:21.506Z,29.50
2018-07-03T09:53:49.701Z,30.10
2018-07-03T09:56:17.956Z,30.00
2018-07-03T09:58:46.299Z,29.30
2018-07-03T10:01:18.601Z,28.50
2018-07-03T10:03:46.885Z,28.40
2018-07-03T10:06:15.129Z,29.10
2018-07-03T10:08:43.497Z,29.30
2018-07-03T10:11:11.912Z,29.30
2018-07-03T10:13:40.153Z,28.80
2018-07-03T10:16:08.736Z,28.50
2018-07-03T10:18:36.918Z,28.70
2018-07-03T10:21:05.217Z,29.20
2018-07-03T10:23:33.619Z,29.10
2018-07-03T10:26:01.896Z,29.60
2018-07-03T10:28:30.124Z,29.80
2018-07-03T10:31:05.003Z,29.60
2018-07-03T10:33:33.295Z,29.50
2018-07-03T10:36:01.531Z,29.10
2018-07-03T10:38:29.804Z,28.90
2018-07-03T10:40:58.075Z,29.10
2018-07-03T10:43:26.271Z,29.90
2018-07-03T10:45:54.632Z,30.40
2018-07-03T10:48:22.860Z,30.70
2018-07-03T10:50:51.095Z,30.90
2018-07-03T10:53:19.368Z,30.90
2018-07-03T10:55:47.648Z,30.10
2018-07-03T11:00:43.916Z,29.90
2018-07-03T11:03:12.348Z,29.40
2018-07-03T11:05:40.675Z,29.20
2018-07-03T11:08:08.858Z,28.90
2018-07-03T11:13:05.206Z,28.60
2018-07-03T11:15:33.522Z,28.70
2018-07-03T11:18:01.763Z,28.80
2018-07-03T11:20:30.178Z,28.80
2018-07-03T11:22:58.451Z,28.50
2018-07-03T11:25:26.675Z,28.40
2018-07-03T11:27:54.916Z,28.20
2018-07-03T11:30:23.186Z,28.30
2018-07-03T11:32:51.472Z,28.40
2018-07-03T11:35:19.687Z,28.20
2018-07-03T11:37:48.020Z,28.20
2018-07-03T11:40:16.247Z,28.10
2018-07-03T11:42:44.497Z,28.00
2018-07-03T11:45:12.780Z,28.00
2018-07-03T11:50:09.074Z,28.00
2018-07-03T11:52:37.912Z,28.10
2018-07-03T11:55:09.275Z,28.10
2018-07-03T11:57:37.575Z,28.20
2018-07-03T12:00:05.954Z,28.40
2018-07-03T12:02:34.291Z,28.40
2018-07-03T12:05:02.535Z,28.50
2018-07-03T12:07:30.842Z,28.60
2018-07-03T12:09:59.122Z,28.60
2018-07-03T12:12:27.399Z,28.60
2018-07-03T12:14:55.631Z,28.70
2018-07-03T12:17:23.887Z,29.00
2018-07-03T12:19:52.185Z,28.80
2018-07-03T12:22:20.394Z,28.70
2018-07-03T12:24:48.641Z,28.90
2018-07-03T12:27:16.871Z,29.00
2018-07-03T12:29:45.128Z,29.00
2018-07-03T12:32:13.342Z,29.10
2018-07-03T12:34:41.646Z,29.00
2018-07-03T12:37:09.874Z,29.00
2018-07-03T12:39:38.083Z,29.10
2018-07-03T12:42:06.675Z,29.20
2018-07-03T12:44:34.924Z,29.00
2018-07-03T12:47:03.153Z,29.00
2018-07-03T12:49:31.346Z,29.10
2018-07-03T12:51:59.549Z,28.80
2018-07-03T12:54:27.821Z,28.70
2018-07-03T12:56:56.050Z,28.70
2018-07-03T12:59:24.380Z,28.60
2018-07-03T13:01:52.682Z,28.30
2018-07-03T13:04:21.992Z,28.30
2018-07-03T13:06:52.116Z,28.40
2018-07-03T13:09:20.585Z,28.50
2018-07-03T13:11:48.813Z,28.60
2018-07-03T13:14:17.135Z,28.80
2018-07-03T13:16:45.346Z,28.90
2018-07-03T13:19:13.552Z,28.90
2018-07-03T13:21:41.811Z,28.70
2018-07-03T13:24:10.031Z,28.60
2018-07-03T13:26:38.333Z,28.70
2018-07-03T13:29:06.606Z,28.70
2018-07-03T13:31:34.882Z,28.60
2018-07-03T13:34:03.075Z,28.50
2018-07-03T13:36:31.673Z,28.40
2018-07-03T13:38:59.915Z,28.40
2018-07-03T13:41:28.140Z,28.20
2018-07-03T13:43:56.376Z,28.10
2018-07-03T13:46:24.602Z,28.10
2018-07-03T13:48:52.814Z,28.10
2018-07-03T13:51:21.340Z,28.10
2018-07-03T13:53:49.622Z,28.00
2018-07-03T13:56:17.981Z,28.00
2018-07-03T13:58:46.211Z,27.90
2018-07-03T14:01:14.459Z,28.00
2018-07-03T14:03:42.699Z,27.90
2018-07-03T14:06:10.949Z,27.90
2018-07-03T14:08:39.146Z,27.90
2018-07-03T14:11:07.726Z,27.70
2018-07-03T14:13:36.002Z,27.70
2018-07-03T14:16:04.267Z,27.60
2018-07-03T14:18:32.540Z,27.40
2018-07-03T14:21:00.740Z,27.40
2018-07-03T14:23:29.887Z,27.30
2018-07-03T14:25:58.423Z,27.30
2018-07-03T14:28:26.667Z,27.30
2018-07-03T14:30:54.891Z,27.20
2018-07-03T14:33:23.166Z,27.10
2018-07-03T14:35:51.375Z,27.10
2018-07-03T14:38:19.598Z,27.10
2018-07-03T14:40:47.842Z,27.10
2018-07-03T14:43:16.051Z,27.20
2018-07-03T14:45:44.279Z,27.20
2018-07-03T14:48:12.556Z,27.30
2018-07-03T14:50:40.878Z,27.30
2018-07-03T14:53:09.119Z,27.30
2018-07-03T14:55:37.338Z,27.30
2018-07-03T14:58:05.862Z,27.30
2018-07-03T15:00:34.104Z,27.30
2018-07-03T15:03:02.884Z,27.30
2018-07-03T15:05:31.143Z,27.30
2018-07-03T15:07:59.384Z,27.20
2018-07-03T15:10:27.648Z,27.10
2018-07-03T15:12:56.451Z,27.00
2018-07-03T15:15:25.024Z,26.90
2018-07-03T15:17:53.288Z,26.90
2018-07-03T15:20:21.648Z,26.90
2018-07-03T15:22:50.012Z,26.90
2018-07-03T15:25:18.265Z,26.80
2018-07-03T15:27:46.624Z,26.70
2018-07-03T15:30:17.439Z,26.70
2018-07-03T15:32:45.731Z,26.60
2018-07-03T15:35:14.089Z,26.70
2018-07-03T15:37:42.345Z,26.70
2018-07-03T15:40:10.807Z,26.50
2018-07-03T15:42:39.036Z,26.50
2018-07-03T15:45:09.782Z,26.50
2018-07-03T15:47:38.171Z,26.40
2018-07-03T15:50:07.897Z,26.30
2018-07-03T15:52:36.158Z,26.20
2018-07-03T15:55:04.534Z,26.20
2018-07-03T15:57:32.906Z,26.20
2018-07-03T16:00:01.187Z,26.20
2018-07-03T16:02:29.470Z,26.20
2018-07-03T16:05:13.393Z,26.30
2018-07-03T16:07:53.140Z,26.40
2018-07-03T16:10:21.373Z,26.30
2018-07-03T16:12:49.593Z,26.20
2018-07-03T16:15:17.837Z,26.20
2018-07-03T16:17:46.054Z,26.20
2018-07-03T16:20:19.694Z,26.10
2018-07-03T16:22:47.977Z,26.10
2018-07-03T16:25:16.281Z,26.10
2018-07-03T16:27:44.545Z,26.10
2018-07-03T16:30:12.871Z,26.10
2018-07-03T16:32:41.155Z,26.10
2018-07-03T16:35:09.390Z,26.10
2018-07-03T16:37:37.634Z,26.10
2018-07-03T16:40:05.944Z,26.10
2018-07-03T16:42:34.234Z,26.00
2018-07-03T16:45:02.507Z,26.00
2018-07-03T16:47:30.997Z,26.00
2018-07-03T16:52:27.338Z,26.10
2018-07-03T16:54:55.621Z,26.10
2018-07-03T16:57:23.902Z,26.10
2018-07-03T16:59:52.152Z,26.10
2018-07-03T17:02:20.466Z,26.20
2018-07-03T17:07:17.190Z,26.10
2018-07-03T17:09:45.471Z,26.00
2018-07-03T17:12:13.747Z,26.00
2018-07-03T17:14:42.384Z,26.00
2018-07-03T17:17:10.653Z,26.00
2018-07-03T17:19:40.254Z,25.90
2018-07-03T17:22:08.561Z,25.90
2018-07-03T17:24:36.870Z,25.90
2018-07-03T17:27:05.557Z,26.00
2018-07-03T17:29:34.342Z,26.00
2018-07-03T17:32:02.721Z,26.00
2018-07-03T17:34:31.511Z,26.00
2018-07-03T17:36:59.835Z,25.90
2018-07-03T17:39:39.500Z,25.90
2018-07-03T17:42:19.116Z,26.00
2018-07-03T17:45:54.566Z,25.90
2018-07-03T17:48:22.829Z,25.90
2018-07-03T17:50:51.166Z,25.70
2018-07-03T17:53:19.409Z,25.70
2018-07-03T17:55:47.733Z,25.60
2018-07-03T17:58:16.105Z,25.60
2018-07-03T18:00:44.389Z,25.60
2018-07-03T18:03:12.705Z,25.60
2018-07-03T18:05:40.931Z,25.60
2018-07-03T18:08:09.161Z,25.60
2018-07-03T18:10:37.424Z,25.60
2018-07-03T18:13:05.745Z,25.50
2018-07-03T18:15:33.997Z,25.50
2018-07-03T18:18:02.220Z,25.40
2018-07-03T18:20:30.489Z,25.30
2018-07-03T18:22:58.844Z,25.30
2018-07-03T18:25:26.999Z,25.30
2018-07-03T18:27:55.228Z,25.20
2018-07-03T18:30:23.475Z,25.20
2018-07-03T18:32:51.798Z,25.10
2018-07-03T18:35:20.011Z,25.00
2018-07-03T18:37:48.304Z,25.10
2018-07-03T18:40:16.605Z,25.00
2018-07-03T18:42:45.102Z,25.00
2018-07-03T18:45:14.272Z,24.90
2018-07-03T18:47:42.530Z,24.90
2018-07-03T18:50:10.821Z,24.90
2018-07-03T18:52:39.041Z,24.80
2018-07-03T18:55:07.265Z,24.80
2018-07-03T18:57:35.542Z,24.80
2018-07-03T19:00:03.805Z,24.70
2018-07-03T19:02:32.027Z,24.70
2018-07-03T19:05:00.271Z,24.70
2018-07-03T19:07:28.497Z,24.70
2018-07-03T19:09:56.693Z,24.60
2018-07-03T19:12:24.942Z,24.60
2018-07-03T19:14:53.255Z,24.60
2018-07-03T19:17:21.499Z,24.60
2018-07-03T19:19:49.869Z,24.60
2018-07-03T19:22:18.099Z,24.50
2018-07-03T19:24:46.440Z,24.50
2018-07-03T19:27:14.687Z,24.50
2018-07-03T19:29:42.905Z,24.30
2018-07-03T19:32:11.134Z,24.30
2018-07-03T19:34:39.422Z,24.20
2018-07-03T19:37:07.677Z,24.20
2018-07-03T19:39:35.915Z,24.20
2018-07-03T19:42:04.348Z,24.10
2018-07-03T19:44:32.633Z,24.10
2018-07-03T19:47:00.921Z,24.10
2018-07-03T19:49:29.234Z,24.00
2018-07-03T19:51:57.494Z,24.00
2018-07-03T19:54:25.762Z,23.90
2018-07-03T19:56:54.067Z,23.90
2018-07-03T19:59:22.361Z,23.80
2018-07-03T20:01:50.654Z,23.80
2018-07-03T20:04:19.012Z,23.80
2018-07-03T20:06:47.313Z,23.80
2018-07-03T20:09:15.582Z,23.80
2018-07-03T20:11:43.826Z,23.80
2018-07-03T20:14:12.173Z,23.80
2018-07-03T20:16:40.409Z,23.80
2018-07-03T20:19:14.177Z,23.80
2018-07-03T20:21:44.868Z,23.70
2018-07-03T20:24:15.900Z,23.70
2018-07-03T20:26:44.429Z,23.70
2018-07-03T20:29:13.549Z,23.50
2018-07-03T20:31:41.822Z,23.40
2018-07-03T20:34:10.147Z,23.20
2018-07-03T20:36:38.451Z,23.20
2018-07-03T20:39:08.464Z,23.10
2018-07-03T20:41:36.875Z,23.00
2018-07-03T20:44:05.427Z,22.90
2018-07-03T20:46:34.265Z,22.90
2018-07-03T20:49:02.674Z,22.80
2018-07-03T20:51:30.891Z,22.70
2018-07-03T20:53:59.177Z,22.60
2018-07-03T20:56:27.446Z,22.60
2018-07-03T20:58:55.720Z,22.60
2018-07-03T21:01:24.072Z,22.50
2018-07-03T21:03:52.416Z,22.40
2018-07-03T21:06:20.843Z,22.30
2018-07-03T21:08:49.105Z,22.30
2018-07-03T21:11:17.378Z,22.20
2018-07-03T21:13:45.694Z,22.20
2018-07-03T21:16:14.061Z,22.20
2018-07-03T21:18:42.401Z,22.20
2018-07-03T21:21:10.790Z,22.20
2018-07-03T21:23:39.071Z,22.20
2018-07-03T21:26:07.424Z,22.10
2018-07-03T21:28:35.699Z,22.20
2018-07-03T21:31:03.985Z,22.20
2018-07-03T21:33:32.249Z,22.20
2018-07-03T21:36:00.564Z,22.30
2018-07-03T21:38:28.879Z,22.20
2018-07-03T21:40:58.022Z,22.20
2018-07-03T21:43:26.299Z,22.20
2018-07-03T21:45:56.034Z,22.20
2018-07-03T21:48:24.466Z,22.20
2018-07-03T21:50:52.793Z,22.10
2018-07-03T21:53:21.018Z,22.20
2018-07-03T21:55:49.270Z,22.20
2018-07-03T21:58:17.510Z,22.20
2018-07-03T22:00:45.744Z,22.10
2018-07-03T22:03:13.985Z,22.10
2018-07-03T22:05:48.606Z,22.00
2018-07-03T22:08:16.858Z,21.90
2018-07-03T22:10:45.061Z,21.70
2018-07-03T22:13:13.365Z,21.60
2018-07-03T22:15:41.623Z,21.60
2018-07-03T22:18:09.942Z,21.60
2018-07-03T22:20:38.244Z,21.60
2018-07-03T22:23:06.495Z,21.50
2018-07-03T22:25:34.772Z,21.40
2018-07-03T22:28:03.072Z,21.30
2018-07-03T22:30:31.361Z,21.20
2018-07-03T22:32:59.612Z,21.10
2018-07-03T22:35:27.868Z,21.10
2018-07-03T22:37:56.122Z,21.00
2018-07-03T22:40:24.441Z,20.90
2018-07-03T22:42:52.747Z,20.80
2018-07-03T22:45:20.990Z,20.70
2018-07-03T22:47:49.266Z,20.70
2018-07-03T22:50:17.514Z,20.70
2018-07-03T22:52:45.795Z,20.70
2018-07-03T22:55:14.003Z,20.60
2018-07-03T22:57:42.298Z,20.60
2018-07-03T23:00:10.571Z,20.60
2018-07-03T23:02:38.894Z,20.70
2018-07-03T23:05:07.127Z,20.70
2018-07-03T23:07:35.416Z,20.70
2018-07-03T23:10:03.682Z,20.70
2018-07-03T23:12:31.998Z,20.70
2018-07-03T23:15:00.209Z,20.70
2018-07-03T23:17:28.486Z,20.70
2018-07-03T23:19:56.736Z,20.80
2018-07-03T23:22:24.988Z,20.80
2018-07-03T23:24:53.242Z,20.90
2018-07-03T23:27:21.515Z,20.90
2018-07-03T23:29:49.897Z,20.90
2018-07-03T23:32:18.130Z,20.80
2018-07-03T23:34:46.367Z,20.80
2018-07-03T23:37:14.628Z,20.70
2018-07-03T23:39:42.875Z,20.70
2018-07-03T23:42:11.094Z,20.70
2018-07-03T23:44:39.338Z,20.50
2018-07-03T23:47:18.795Z,20.50
2018-07-03T23:49:58.418Z,20.40
2018-07-03T23:52:38.025Z,20.20
2018-07-03T23:55:17.583Z,20.00
2018-07-03T23:57:57.125Z,19.90
